MMRX/REX METAR and TAF weather

Enter ICAO airport designator
Station Type Date Time Source
MMRX METAR 2019/08/25 20:46 UTC NOAA

MMRX 252046Z 13010G20KT 7SM BKN050TCU 37/21 A2973 RMK SLP063 57035 980 8/200 DSNT CB E


Station Type Date Time Source
MMRX Decoded METAR 2019/08/25 20:46 UTC NOAA

Station name not available
Aug 25, 2019 - 04:46 PM EDT / 2019.08.25 2046 UTC
Wind: from the SE (130 degrees) at 12 MPH (10 KT) gusting to 23 MPH (20 KT):0
Visibility: 7 mile(s):0
Sky conditions: mostly cloudy
Weather: Cumulonimbus clouds, towering cumulus clouds observed
Temperature: 98 F (37 C)
Heat index: 104.2 F (40.1 C):1
Dew Point: 69 F (21 C)
Relative Humidity: 39%
Pressure (altimeter): 29.73 in. Hg (1006 hPa)
Pressure tendency: 0.10 inches (3.5 hPa) lower than three hours ago
ob: MMRX 252046Z 13010G20KT 7SM BKN050TCU 37/21 A2973 RMK SLP063 57035 980 8/200 DSNT CB E
cycle: 21

Station Type Date Time Source
MMRX TAF 2019/08/25 18:21 UTC NOAA

TAF MMRX 251620Z 2518/2618 14010G20KT P6SM SCT030 BKN100
TEMPO 2522/2602 P6SM VC RA BKN030CB
FM260400 15010KT 6SM HZ SCT020
BECMG 2609/2610 3SM BR HZ BKN015
FM261500 16015KT P6SM SCT015

Example: see airport list